createdAt,value
2018-01-22T00:02:10.000Z,1003.429
2018-01-22T00:12:10.000Z,1003.321
2018-01-22T00:22:10.000Z,1003.051
2018-01-22T00:32:10.000Z,1002.547
2018-01-22T00:42:10.000Z,1002.274
2018-01-22T00:52:10.000Z,1002.017
2018-01-22T01:02:10.000Z,1001.712
2018-01-22T01:12:10.000Z,1001.342
2018-01-22T01:22:10.000Z,1001.355
2018-01-22T01:32:10.000Z,1001.214
2018-01-22T01:42:10.000Z,1001.097
2018-01-22T01:52:10.000Z,1000.909
2018-01-22T02:02:10.000Z,1000.72
2018-01-22T02:12:10.000Z,1000.242
2018-01-22T02:22:10.000Z,1000.142
2018-01-22T02:32:10.000Z,1000.002
2018-01-22T02:42:10.000Z,999.76
2018-01-22T02:52:10.000Z,999.577
2018-01-22T03:02:10.000Z,999.107
2018-01-22T03:12:10.000Z,998.925
2018-01-22T03:22:10.000Z,998.815
2018-01-22T03:32:10.000Z,998.603
2018-01-22T03:42:10.000Z,998.5
2018-01-22T03:52:10.000Z,998.476
2018-01-22T04:02:10.000Z,998.431
2018-01-22T04:12:10.000Z,998.54
2018-01-22T04:22:10.000Z,998.669
2018-01-22T04:32:10.000Z,998.297
2018-01-22T04:42:10.000Z,998.189
2018-01-22T04:52:10.000Z,997.995
2018-01-22T05:02:10.000Z,997.836
2018-01-22T05:12:10.000Z,997.627
2018-01-22T05:22:11.000Z,997.285
2018-01-22T05:32:11.000Z,997.143
2018-01-22T05:42:11.000Z,997.075
2018-01-22T05:52:11.000Z,997.133
2018-01-22T06:02:11.000Z,997.146
2018-01-22T06:12:11.000Z,997.106
2018-01-22T06:22:11.000Z,997.099
2018-01-22T06:32:11.000Z,997.074
2018-01-22T06:42:11.000Z,997.06
2018-01-22T06:52:11.000Z,997.054
2018-01-22T07:12:11.000Z,997.248
2018-01-22T07:22:11.000Z,997.239
2018-01-22T07:32:11.000Z,997.169
2018-01-22T07:42:11.000Z,997.097
2018-01-22T07:52:11.000Z,997.058
2018-01-22T08:02:11.000Z,997.181
2018-01-22T08:12:11.000Z,997.431
2018-01-22T08:22:11.000Z,997.409
2018-01-22T08:32:11.000Z,997.259
2018-01-22T08:42:11.000Z,997.228
2018-01-22T08:52:11.000Z,997.291
2018-01-22T09:02:11.000Z,997.379
2018-01-22T09:12:11.000Z,997.501
2018-01-22T09:22:11.000Z,997.47
2018-01-22T09:32:11.000Z,997.462
2018-01-22T09:42:11.000Z,997.557
2018-01-22T09:52:11.000Z,997.673
2018-01-22T10:02:11.000Z,997.783
2018-01-22T10:12:11.000Z,997.88
2018-01-22T10:32:11.000Z,997.909
2018-01-22T10:42:11.000Z,998.025
2018-01-22T10:52:11.000Z,997.96
2018-01-22T11:02:11.000Z,998.13
2018-01-22T11:12:11.000Z,998.304
2018-01-22T11:22:11.000Z,998.265
2018-01-22T11:32:11.000Z,998.358
2018-01-22T11:42:11.000Z,998.376
2018-01-22T11:52:11.000Z,998.353
2018-01-22T12:02:11.000Z,998.466
2018-01-22T12:12:11.000Z,998.608
2018-01-22T12:22:11.000Z,998.689
2018-01-22T12:32:11.000Z,998.652
2018-01-22T12:42:11.000Z,998.742
2018-01-22T12:52:11.000Z,998.806
2018-01-22T13:02:11.000Z,998.919
2018-01-22T13:12:11.000Z,998.967
2018-01-22T13:22:11.000Z,999.128
2018-01-22T13:32:11.000Z,999.234
2018-01-22T13:42:11.000Z,999.433
2018-01-22T13:52:12.000Z,999.445
2018-01-22T14:02:12.000Z,999.466
2018-01-22T14:12:12.000Z,999.575
2018-01-22T14:22:12.000Z,999.712
2018-01-22T14:32:12.000Z,999.932
2018-01-22T14:42:12.000Z,1000.026
2018-01-22T14:52:12.000Z,1000.155
2018-01-22T15:02:12.000Z,1000.268
2018-01-22T15:12:12.000Z,1000.508
2018-01-22T15:22:12.000Z,1000.784
2018-01-22T15:32:12.000Z,1000.853
2018-01-22T15:42:12.000Z,1001.055
2018-01-22T15:52:12.000Z,1001.337
2018-01-22T16:02:12.000Z,1001.402
2018-01-22T16:12:12.000Z,1001.543
2018-01-22T16:22:12.000Z,1001.767
2018-01-22T16:32:12.000Z,1002.009
2018-01-22T16:42:12.000Z,1002.117
2018-01-22T16:52:12.000Z,1002.357
2018-01-22T17:02:12.000Z,1002.65
2018-01-22T17:12:12.000Z,1002.737
2018-01-22T17:22:12.000Z,1002.848
2018-01-22T17:32:12.000Z,1003.157
2018-01-22T17:42:12.000Z,1003.379
2018-01-22T17:52:12.000Z,1003.696
2018-01-22T18:02:12.000Z,1003.755
2018-01-22T18:12:12.000Z,1003.806
2018-01-22T18:22:12.000Z,1003.991
2018-01-22T18:32:12.000Z,1004.188
2018-01-22T18:42:12.000Z,1004.337
2018-01-22T18:52:12.000Z,1004.473
2018-01-22T19:02:12.000Z,1004.653
2018-01-22T19:12:12.000Z,1004.734
2018-01-22T19:22:12.000Z,1004.985
2018-01-22T19:32:12.000Z,1005.11
2018-01-22T19:42:12.000Z,1005.32
2018-01-22T19:52:12.000Z,1005.371
2018-01-22T20:02:12.000Z,1005.662
2018-01-22T20:12:12.000Z,1005.709
2018-01-22T20:22:15.000Z,1005.776
2018-01-22T20:32:12.000Z,1006.062
2018-01-22T20:42:12.000Z,1006.14
2018-01-22T20:52:12.000Z,1006.229
2018-01-22T21:02:12.000Z,1006.492
2018-01-22T21:12:12.000Z,1006.62
2018-01-22T21:22:12.000Z,1006.821
2018-01-22T21:32:12.000Z,1007.072
2018-01-22T21:42:12.000Z,1007.26
2018-01-22T21:52:12.000Z,1007.447
2018-01-22T22:02:13.000Z,1007.501
2018-01-22T22:12:13.000Z,1007.78
2018-01-22T22:22:13.000Z,1007.945
2018-01-22T22:32:13.000Z,1008.077
2018-01-22T22:42:13.000Z,1008.11
2018-01-22T22:52:13.000Z,1008.254
2018-01-22T23:02:13.000Z,1008.397
2018-01-22T23:12:15.000Z,1008.529
2018-01-22T23:22:13.000Z,1008.759
2018-01-22T23:32:13.000Z,1008.893
2018-01-22T23:42:14.000Z,1009.056
2018-01-22T23:52:13.000Z,1009.25
